Laguepe — 9HAI9 — position and weather

sailwx.info

Track history (hours):
 
Tides and Currents Weather Stations Pressure Air Temp Water Temp Dewpoint Dewpoint Depression Visibility Wind Speed Wind Dir Waves Ship Positions

Laguepe

Last reported at 2015-Sep-01 17:34 UTC. Time now 2015-Sep-01 18:10 UTC.
Position N 43°12' E 004°48'.

Length 81 m; draft 3.2 m.

Type: Cargo ship. MMSI: 256681000.

Date/timePositionNaut miles runAvg speedWind from/ knotsBaromVisibWave heightAir tempDewpointWater temp
2015-Sep-01 17:34N 43°12' E 004°48'8 8.2
2015-Sep-01 16:33N 43°18' E 004°55'6 5.9
2015-Sep-01 15:34N 43°23' E 004°52'2 2.3
2015-Sep-01 14:33N 43°23' E 004°49'0 0.3
2015-Sep-01 13:34N 43°23' E 004°48'  
2015-Aug-28 16:33N 43°23' E 004°48'2 2.1
2015-Aug-28 15:34N 43°23' E 004°51'7 6.6
2015-Aug-28 14:33N 43°20' E 004°59'8 7.9
2015-Aug-28 13:33N 43°12' E 005°02'50 8.3
2015-Aug-28 07:33N 42°36' E 004°17'17 8.6
2015-Aug-28 05:32N 42°23' E 004°01'55 8.6
2015-Aug-27 23:09N 41°44' E 003°08'50 9.0
2015-Aug-27 17:33N 41°15' E 002°14'13 9.2
2015-Aug-27 16:06N 41°11' E 001°57'7 9.7
2015-Aug-27 15:25N 41°09' E 001°48'27 2.2
2015-Aug-27 03:14N 41°05' E 001°13'6 5.1
2015-Aug-27 02:04N 41°04' E 001°21'4 7.1
2015-Aug-27 01:33N 41°05' E 001°25'28 6.9
2015-Aug-26 21:33N 41°12' E 002°01'7 7.2
2015-Aug-26 20:33N 41°14' E 002°10'9 8.0
2015-Aug-26 19:25N 41°19' E 002°20'9 7.9
2015-Aug-26 18:17N 41°24' E 002°30'6 7.7
2015-Aug-26 17:32N 41°27' E 002°36'44 6.9
2015-Aug-26 11:12N 41°53' E 003°23'0 0.5
2015-Aug-26 10:18N 41°54' E 003°23'1 1.4
2015-Aug-26 09:33N 41°55' E 003°24'6 6.1
2015-Aug-26 08:33N 41°59' E 003°29'6 6.5
2015-Aug-26 07:33N 42°04' E 003°34'8 7.0
2015-Aug-26 06:29N 42°10' E 003°40'25 7.5
2015-Aug-26 03:11N 42°29' E 004°01'8 8.8
2015-Aug-26 02:15N 42°36' E 004°08'6 8.9
2015-Aug-26 01:33N 42°41' E 004°13'28 8.4
2015-Aug-25 22:09N 43°03' E 004°38'13 8.2
2015-Aug-25 20:33N 43°13' E 004°49'8 8.2
2015-Aug-25 19:34N 43°20' E 004°56'6 5.8
2015-Aug-25 18:33N 43°23' E 004°49'1 0.7
2015-Aug-25 17:33N 43°23' E 004°48'0 0.0
2015-Aug-25 16:33N 43°23' E 004°48'0 0.0
2015-Aug-25 15:33N 43°23' E 004°48'1 1.3
2015-Aug-25 14:33N 43°24' E 004°47'  
Track history (hours):
 
Tides and Currents Weather Stations Pressure Air Temp Water Temp Dewpoint Dewpoint Depression Visibility Wind Speed Wind Dir Waves Ship Positions

Laguepe

Last reported at 2015-Sep-01 17:34 UTC. Time now 2015-Sep-01 18:10 UTC.
Position N 43°12' E 004°48'.

Length 81 m; draft 3.2 m.

Type: Cargo ship. MMSI: 256681000.

Date/timePositionNaut miles runAvg speedWind from/ knotsBaromVisibWave heightAir tempDewpointWater temp
2015-Sep-01 17:34N 43°12' E 004°48'8 8.2
2015-Sep-01 16:33N 43°18' E 004°55'6 5.9
2015-Sep-01 15:34N 43°23' E 004°52'2 2.3
2015-Sep-01 14:33N 43°23' E 004°49'0 0.3
2015-Sep-01 13:34N 43°23' E 004°48'  
2015-Aug-28 16:33N 43°23' E 004°48'2 2.1
2015-Aug-28 15:34N 43°23' E 004°51'7 6.6
2015-Aug-28 14:33N 43°20' E 004°59'8 7.9
2015-Aug-28 13:33N 43°12' E 005°02'50 8.3
2015-Aug-28 07:33N 42°36' E 004°17'17 8.6
2015-Aug-28 05:32N 42°23' E 004°01'55 8.6
2015-Aug-27 23:09N 41°44' E 003°08'50 9.0
2015-Aug-27 17:33N 41°15' E 002°14'13 9.2
2015-Aug-27 16:06N 41°11' E 001°57'7 9.7
2015-Aug-27 15:25N 41°09' E 001°48'27 2.2
2015-Aug-27 03:14N 41°05' E 001°13'6 5.1
2015-Aug-27 02:04N 41°04' E 001°21'4 7.1
2015-Aug-27 01:33N 41°05' E 001°25'28 6.9
2015-Aug-26 21:33N 41°12' E 002°01'7 7.2
2015-Aug-26 20:33N 41°14' E 002°10'9 8.0
2015-Aug-26 19:25N 41°19' E 002°20'9 7.9
2015-Aug-26 18:17N 41°24' E 002°30'6 7.7
2015-Aug-26 17:32N 41°27' E 002°36'44 6.9
2015-Aug-26 11:12N 41°53' E 003°23'0 0.5
2015-Aug-26 10:18N 41°54' E 003°23'1 1.4
2015-Aug-26 09:33N 41°55' E 003°24'6 6.1
2015-Aug-26 08:33N 41°59' E 003°29'6 6.5
2015-Aug-26 07:33N 42°04' E 003°34'8 7.0
2015-Aug-26 06:29N 42°10' E 003°40'25 7.5
2015-Aug-26 03:11N 42°29' E 004°01'8 8.8
2015-Aug-26 02:15N 42°36' E 004°08'6 8.9
2015-Aug-26 01:33N 42°41' E 004°13'28 8.4
2015-Aug-25 22:09N 43°03' E 004°38'13 8.2
2015-Aug-25 20:33N 43°13' E 004°49'8 8.2
2015-Aug-25 19:34N 43°20' E 004°56'6 5.8
2015-Aug-25 18:33N 43°23' E 004°49'1 0.7
2015-Aug-25 17:33N 43°23' E 004°48'0 0.0
2015-Aug-25 16:33N 43°23' E 004°48'0 0.0
2015-Aug-25 15:33N 43°23' E 004°48'1 1.3
2015-Aug-25 14:33N 43°24' E 004°47'  

Dump ship's entire track history